sensor_id;sensor_type;location;lat;lon;timestamp;P1;durP1;ratioP1;P2;durP2;ratioP2
71462;SDS011;59266;52.608;13.260;2023-02-14T00:01:07;30.80;;;9.75;;
71462;SDS011;59266;52.608;13.260;2023-02-14T00:03:35;30.52;;;10.25;;
71462;SDS011;59266;52.608;13.260;2023-02-14T00:06:09;28.52;;;9.15;;
71462;SDS011;59266;52.608;13.260;2023-02-14T00:08:40;30.38;;;9.43;;
71462;SDS011;59266;52.608;13.260;2023-02-14T00:11:10;29.45;;;9.27;;
71462;SDS011;59266;52.608;13.260;2023-02-14T00:13:38;28.35;;;8.90;;
71462;SDS011;59266;52.608;13.260;2023-02-14T00:16:05;28.73;;;9.20;;
71462;SDS011;59266;52.608;13.260;2023-02-14T00:18:32;29.80;;;9.38;;
71462;SDS011;59266;52.608;13.260;2023-02-14T00:21:17;26.63;;;9.25;;
71462;SDS011;59266;52.608;13.260;2023-02-14T00:23:44;25.58;;;9.15;;
71462;SDS011;59266;52.608;13.260;2023-02-14T00:26:13;32.47;;;9.60;;
71462;SDS011;59266;52.608;13.260;2023-02-14T00:28:40;32.35;;;10.18;;
71462;SDS011;59266;52.608;13.260;2023-02-14T00:31:07;26.45;;;8.57;;
71462;SDS011;59266;52.608;13.260;2023-02-14T00:33:34;31.13;;;9.48;;
71462;SDS011;59266;52.608;13.260;2023-02-14T00:36:02;24.77;;;8.80;;
71462;SDS011;59266;52.608;13.260;2023-02-14T00:38:29;26.90;;;9.30;;
71462;SDS011;59266;52.608;13.260;2023-02-14T00:40:56;27.52;;;9.52;;
71462;SDS011;59266;52.608;13.260;2023-02-14T00:43:25;25.80;;;8.10;;
71462;SDS011;59266;52.608;13.260;2023-02-14T00:45:51;27.90;;;9.27;;
71462;SDS011;59266;52.608;13.260;2023-02-14T00:48:18;24.15;;;8.70;;
71462;SDS011;59266;52.608;13.260;2023-02-14T00:50:47;21.92;;;8.07;;
71462;SDS011;59266;52.608;13.260;2023-02-14T00:53:14;27.48;;;8.30;;
71462;SDS011;59266;52.608;13.260;2023-02-14T00:55:43;25.58;;;8.10;;
71462;SDS011;59266;52.608;13.260;2023-02-14T00:58:11;28.35;;;8.90;;
71462;SDS011;59266;52.608;13.260;2023-02-14T01:00:38;27.13;;;7.93;;
71462;SDS011;59266;52.608;13.260;2023-02-14T01:03:05;28.73;;;9.10;;
71462;SDS011;59266;52.608;13.260;2023-02-14T01:05:31;28.55;;;9.77;;
71462;SDS011;59266;52.608;13.260;2023-02-14T01:07:58;27.13;;;8.93;;
71462;SDS011;59266;52.608;13.260;2023-02-14T01:10:25;29.05;;;8.90;;
71462;SDS011;59266;52.608;13.260;2023-02-14T01:12:52;25.85;;;8.40;;
71462;SDS011;59266;52.608;13.260;2023-02-14T01:15:18;26.27;;;8.95;;
71462;SDS011;59266;52.608;13.260;2023-02-14T01:17:45;26.65;;;8.18;;
71462;SDS011;59266;52.608;13.260;2023-02-14T01:20:12;28.02;;;9.43;;
71462;SDS011;59266;52.608;13.260;2023-02-14T01:22:40;27.00;;;9.05;;
71462;SDS011;59266;52.608;13.260;2023-02-14T01:25:06;22.80;;;9.63;;
71462;SDS011;59266;52.608;13.260;2023-02-14T01:27:33;24.95;;;8.52;;
71462;SDS011;59266;52.608;13.260;2023-02-14T01:30:00;25.80;;;8.27;;
71462;SDS011;59266;52.608;13.260;2023-02-14T01:32:29;25.75;;;8.10;;
71462;SDS011;59266;52.608;13.260;2023-02-14T01:34:57;24.75;;;8.40;;
71462;SDS011;59266;52.608;13.260;2023-02-14T01:37:24;24.75;;;8.65;;
71462;SDS011;59266;52.608;13.260;2023-02-14T01:39:51;26.10;;;8.32;;
71462;SDS011;59266;52.608;13.260;2023-02-14T01:42:18;26.02;;;8.50;;
71462;SDS011;59266;52.608;13.260;2023-02-14T01:47:23;23.42;;;7.93;;
71462;SDS011;59266;52.608;13.260;2023-02-14T01:49:53;31.60;;;9.45;;
71462;SDS011;59266;52.608;13.260;2023-02-14T01:52:28;26.88;;;8.73;;
71462;SDS011;59266;52.608;13.260;2023-02-14T01:55:09;24.67;;;8.63;;
71462;SDS011;59266;52.608;13.260;2023-02-14T01:57:50;24.17;;;8.40;;
71462;SDS011;59266;52.608;13.260;2023-02-14T02:00:21;30.83;;;9.32;;
71462;SDS011;59266;52.608;13.260;2023-02-14T02:03:07;25.80;;;8.25;;
71462;SDS011;59266;52.608;13.260;2023-02-14T02:05:35;31.63;;;8.02;;
71462;SDS011;59266;52.608;13.260;2023-02-14T02:08:05;24.42;;;7.45;;
71462;SDS011;59266;52.608;13.260;2023-02-14T02:10:32;27.00;;;8.38;;
71462;SDS011;59266;52.608;13.260;2023-02-14T02:13:00;25.60;;;8.05;;
71462;SDS011;59266;52.608;13.260;2023-02-14T02:15:32;30.83;;;8.90;;
71462;SDS011;59266;52.608;13.260;2023-02-14T02:18:10;28.95;;;8.55;;
71462;SDS011;59266;52.608;13.260;2023-02-14T02:21:11;27.65;;;8.77;;
71462;SDS011;59266;52.608;13.260;2023-02-14T02:24:06;24.92;;;8.32;;
71462;SDS011;59266;52.608;13.260;2023-02-14T02:40:54;24.23;;;8.55;;
71462;SDS011;59266;52.608;13.260;2023-02-14T02:43:41;27.98;;;8.63;;
71462;SDS011;59266;52.608;13.260;2023-02-14T02:46:24;29.73;;;9.27;;
71462;SDS011;59266;52.608;13.260;2023-02-14T02:52:08;27.65;;;8.90;;
71462;SDS011;59266;52.608;13.260;2023-02-14T02:55:02;25.30;;;8.48;;
71462;SDS011;59266;52.608;13.260;2023-02-14T02:57:35;24.88;;;8.68;;
71462;SDS011;59266;52.608;13.260;2023-02-14T03:00:06;20.95;;;7.45;;
71462;SDS011;59266;52.608;13.260;2023-02-14T03:02:39;28.52;;;9.27;;
71462;SDS011;59266;52.608;13.260;2023-02-14T03:05:27;25.60;;;7.38;;
71462;SDS011;59266;52.608;13.260;2023-02-14T03:07:55;23.10;;;7.95;;
71462;SDS011;59266;52.608;13.260;2023-02-14T03:10:22;25.35;;;8.10;;
71462;SDS011;59266;52.608;13.260;2023-02-14T03:15:50;27.50;;;8.32;;
71462;SDS011;59266;52.608;13.260;2023-02-14T03:21:27;27.50;;;8.90;;
71462;SDS011;59266;52.608;13.260;2023-02-14T03:29:42;25.38;;;8.02;;
71462;SDS011;59266;52.608;13.260;2023-02-14T03:32:28;25.83;;;8.98;;
71462;SDS011;59266;52.608;13.260;2023-02-14T03:37:43;24.17;;;8.30;;
71462;SDS011;59266;52.608;13.260;2023-02-14T03:40:29;25.10;;;7.95;;
71462;SDS011;59266;52.608;13.260;2023-02-14T03:43:04;23.45;;;7.88;;
71462;SDS011;59266;52.608;13.260;2023-02-14T03:45:37;27.13;;;8.60;;
71462;SDS011;59266;52.608;13.260;2023-02-14T03:48:10;25.65;;;8.52;;
71462;SDS011;59266;52.608;13.260;2023-02-14T03:50:39;26.35;;;8.93;;
71462;SDS011;59266;52.608;13.260;2023-02-14T03:53:10;27.52;;;8.48;;
71462;SDS011;59266;52.608;13.260;2023-02-14T03:58:39;26.73;;;8.60;;
71462;SDS011;59266;52.608;13.260;2023-02-14T04:01:12;29.25;;;9.18;;
71462;SDS011;59266;52.608;13.260;2023-02-14T04:03:43;26.48;;;8.85;;
71462;SDS011;59266;52.608;13.260;2023-02-14T04:06:09;24.77;;;8.35;;
71462;SDS011;59266;52.608;13.260;2023-02-14T04:08:36;27.55;;;9.50;;
71462;SDS011;59266;52.608;13.260;2023-02-14T04:11:03;25.70;;;8.65;;
71462;SDS011;59266;52.608;13.260;2023-02-14T04:13:31;27.05;;;8.80;;
71462;SDS011;59266;52.608;13.260;2023-02-14T04:15:57;29.20;;;9.20;;
71462;SDS011;59266;52.608;13.260;2023-02-14T04:18:24;25.40;;;8.02;;
71462;SDS011;59266;52.608;13.260;2023-02-14T04:21:09;31.85;;;8.80;;
71462;SDS011;59266;52.608;13.260;2023-02-14T04:23:36;31.15;;;9.68;;
71462;SDS011;59266;52.608;13.260;2023-02-14T04:26:03;25.02;;;8.52;;
71462;SDS011;59266;52.608;13.260;2023-02-14T04:28:30;23.42;;;8.82;;
71462;SDS011;59266;52.608;13.260;2023-02-14T04:31:00;26.50;;;9.05;;
71462;SDS011;59266;52.608;13.260;2023-02-14T04:33:29;26.80;;;8.55;;
71462;SDS011;59266;52.608;13.260;2023-02-14T04:35:56;28.05;;;9.60;;
71462;SDS011;59266;52.608;13.260;2023-02-14T04:38:23;27.92;;;8.65;;
71462;SDS011;59266;52.608;13.260;2023-02-14T04:40:50;25.55;;;8.80;;
71462;SDS011;59266;52.608;13.260;2023-02-14T04:43:18;28.98;;;9.05;;
71462;SDS011;59266;52.608;13.260;2023-02-14T04:45:45;24.85;;;7.90;;
71462;SDS011;59266;52.608;13.260;2023-02-14T04:48:12;25.42;;;8.57;;
71462;SDS011;59266;52.608;13.260;2023-02-14T04:50:38;26.52;;;8.85;;
71462;SDS011;59266;52.608;13.260;2023-02-14T04:53:05;24.95;;;9.02;;
71462;SDS011;59266;52.608;13.260;2023-02-14T04:55:32;23.83;;;7.70;;
71462;SDS011;59266;52.608;13.260;2023-02-14T04:57:59;26.70;;;8.90;;
71462;SDS011;59266;52.608;13.260;2023-02-14T05:00:26;31.65;;;10.23;;
71462;SDS011;59266;52.608;13.260;2023-02-14T05:02:54;30.15;;;9.02;;
71462;SDS011;59266;52.608;13.260;2023-02-14T05:05:20;25.63;;;8.32;;
71462;SDS011;59266;52.608;13.260;2023-02-14T05:07:48;28.30;;;8.40;;
71462;SDS011;59266;52.608;13.260;2023-02-14T05:10:15;24.95;;;8.98;;
71462;SDS011;59266;52.608;13.260;2023-02-14T05:12:42;26.30;;;8.85;;
71462;SDS011;59266;52.608;13.260;2023-02-14T05:15:09;28.13;;;8.98;;
71462;SDS011;59266;52.608;13.260;2023-02-14T05:17:36;25.40;;;8.02;;
71462;SDS011;59266;52.608;13.260;2023-02-14T05:20:03;25.63;;;8.00;;
71462;SDS011;59266;52.608;13.260;2023-02-14T05:22:31;26.13;;;8.95;;
71462;SDS011;59266;52.608;13.260;2023-02-14T05:24:58;26.40;;;8.63;;
71462;SDS011;59266;52.608;13.260;2023-02-14T05:27:26;26.38;;;8.65;;
71462;SDS011;59266;52.608;13.260;2023-02-14T05:29:52;26.83;;;9.30;;
71462;SDS011;59266;52.608;13.260;2023-02-14T05:32:19;30.13;;;8.45;;
71462;SDS011;59266;52.608;13.260;2023-02-14T05:34:46;25.15;;;8.43;;
71462;SDS011;59266;52.608;13.260;2023-02-14T05:37:13;27.40;;;8.75;;
71462;SDS011;59266;52.608;13.260;2023-02-14T05:39:39;25.05;;;7.82;;
71462;SDS011;59266;52.608;13.260;2023-02-14T05:42:06;27.13;;;8.30;;
71462;SDS011;59266;52.608;13.260;2023-02-14T05:44:46;24.52;;;7.93;;
71462;SDS011;59266;52.608;13.260;2023-02-14T05:47:13;27.02;;;8.52;;
71462;SDS011;59266;52.608;13.260;2023-02-14T05:49:40;23.73;;;8.23;;
71462;SDS011;59266;52.608;13.260;2023-02-14T05:52:07;22.25;;;7.53;;
71462;SDS011;59266;52.608;13.260;2023-02-14T05:54:33;27.10;;;9.13;;
71462;SDS011;59266;52.608;13.260;2023-02-14T05:57:00;26.63;;;8.88;;
71462;SDS011;59266;52.608;13.260;2023-02-14T05:59:28;28.00;;;9.23;;
71462;SDS011;59266;52.608;13.260;2023-02-14T06:01:55;27.40;;;8.88;;
71462;SDS011;59266;52.608;13.260;2023-02-14T06:04:22;26.17;;;8.70;;
71462;SDS011;59266;52.608;13.260;2023-02-14T06:06:49;27.05;;;9.25;;
71462;SDS011;59266;52.608;13.260;2023-02-14T06:09:15;24.73;;;7.53;;
71462;SDS011;59266;52.608;13.260;2023-02-14T06:11:42;29.30;;;7.90;;
71462;SDS011;59266;52.608;13.260;2023-02-14T06:14:09;28.15;;;8.32;;
71462;SDS011;59266;52.608;13.260;2023-02-14T06:16:35;27.50;;;10.07;;
71462;SDS011;59266;52.608;13.260;2023-02-14T06:19:02;26.13;;;8.57;;
71462;SDS011;59266;52.608;13.260;2023-02-14T06:21:29;27.33;;;9.00;;
71462;SDS011;59266;52.608;13.260;2023-02-14T06:23:56;28.08;;;8.85;;
71462;SDS011;59266;52.608;13.260;2023-02-14T06:26:23;28.80;;;9.32;;
71462;SDS011;59266;52.608;13.260;2023-02-14T06:28:56;29.08;;;9.20;;
71462;SDS011;59266;52.608;13.260;2023-02-14T06:31:27;27.65;;;9.02;;
71462;SDS011;59266;52.608;13.260;2023-02-14T06:33:55;30.15;;;9.90;;
71462;SDS011;59266;52.608;13.260;2023-02-14T06:36:22;31.17;;;9.35;;
71462;SDS011;59266;52.608;13.260;2023-02-14T06:38:50;32.88;;;9.50;;
71462;SDS011;59266;52.608;13.260;2023-02-14T06:41:16;24.73;;;9.73;;
71462;SDS011;59266;52.608;13.260;2023-02-14T06:43:43;28.85;;;9.75;;
71462;SDS011;59266;52.608;13.260;2023-02-14T06:46:11;33.92;;;10.88;;
71462;SDS011;59266;52.608;13.260;2023-02-14T06:48:47;30.60;;;9.85;;
71462;SDS011;59266;52.608;13.260;2023-02-14T06:51:14;31.73;;;9.18;;
71462;SDS011;59266;52.608;13.260;2023-02-14T06:53:42;32.72;;;9.98;;
71462;SDS011;59266;52.608;13.260;2023-02-14T06:56:12;35.45;;;10.02;;
71462;SDS011;59266;52.608;13.260;2023-02-14T06:58:40;27.48;;;9.23;;
71462;SDS011;59266;52.608;13.260;2023-02-14T07:01:10;30.40;;;9.40;;
71462;SDS011;59266;52.608;13.260;2023-02-14T07:03:37;27.27;;;9.48;;
71462;SDS011;59266;52.608;13.260;2023-02-14T07:06:04;28.17;;;9.38;;
71462;SDS011;59266;52.608;13.260;2023-02-14T07:08:31;27.48;;;9.23;;
71462;SDS011;59266;52.608;13.260;2023-02-14T07:10:58;27.02;;;9.27;;
71462;SDS011;59266;52.608;13.260;2023-02-14T07:13:25;30.60;;;10.30;;
71462;SDS011;59266;52.608;13.260;2023-02-14T07:15:52;29.02;;;9.60;;
71462;SDS011;59266;52.608;13.260;2023-02-14T07:18:20;30.48;;;9.80;;
71462;SDS011;59266;52.608;13.260;2023-02-14T07:20:48;26.63;;;8.60;;
71462;SDS011;59266;52.608;13.260;2023-02-14T07:23:15;26.58;;;8.50;;
71462;SDS011;59266;52.608;13.260;2023-02-14T07:25:41;28.73;;;8.93;;
71462;SDS011;59266;52.608;13.260;2023-02-14T07:28:09;29.27;;;9.25;;
71462;SDS011;59266;52.608;13.260;2023-02-14T07:30:36;30.63;;;9.55;;
71462;SDS011;59266;52.608;13.260;2023-02-14T07:33:02;33.72;;;10.02;;
71462;SDS011;59266;52.608;13.260;2023-02-14T07:35:29;30.10;;;10.05;;
71462;SDS011;59266;52.608;13.260;2023-02-14T07:37:56;27.42;;;9.07;;
71462;SDS011;59266;52.608;13.260;2023-02-14T07:40:24;24.48;;;9.88;;
71462;SDS011;59266;52.608;13.260;2023-02-14T07:42:55;25.65;;;9.68;;
71462;SDS011;59266;52.608;13.260;2023-02-14T07:45:22;33.30;;;11.07;;
71462;SDS011;59266;52.608;13.260;2023-02-14T07:47:52;30.05;;;10.18;;
71462;SDS011;59266;52.608;13.260;2023-02-14T07:50:20;30.75;;;9.85;;
71462;SDS011;59266;52.608;13.260;2023-02-14T07:52:50;34.92;;;10.70;;
71462;SDS011;59266;52.608;13.260;2023-02-14T07:55:20;25.25;;;9.27;;
71462;SDS011;59266;52.608;13.260;2023-02-14T07:57:48;26.75;;;8.52;;
71462;SDS011;59266;52.608;13.260;2023-02-14T08:00:15;23.40;;;7.40;;
71462;SDS011;59266;52.608;13.260;2023-02-14T08:02:42;24.02;;;8.10;;
71462;SDS011;59266;52.608;13.260;2023-02-14T08:05:10;22.90;;;8.25;;
71462;SDS011;59266;52.608;13.260;2023-02-14T08:07:38;33.10;;;11.20;;
71462;SDS011;59266;52.608;13.260;2023-02-14T08:10:05;33.60;;;11.98;;
71462;SDS011;59266;52.608;13.260;2023-02-14T08:12:32;34.65;;;11.57;;
71462;SDS011;59266;52.608;13.260;2023-02-14T08:15:18;33.65;;;12.60;;
71462;SDS011;59266;52.608;13.260;2023-02-14T08:18:03;33.53;;;11.05;;
71462;SDS011;59266;52.608;13.260;2023-02-14T08:20:30;33.50;;;12.25;;
71462;SDS011;59266;52.608;13.260;2023-02-14T08:22:57;32.85;;;11.52;;
71462;SDS011;59266;52.608;13.260;2023-02-14T08:25:25;32.30;;;11.27;;
71462;SDS011;59266;52.608;13.260;2023-02-14T08:27:52;33.03;;;12.25;;
71462;SDS011;59266;52.608;13.260;2023-02-14T08:30:21;33.53;;;11.98;;
71462;SDS011;59266;52.608;13.260;2023-02-14T08:32:49;35.22;;;12.95;;
71462;SDS011;59266;52.608;13.260;2023-02-14T08:35:16;36.92;;;12.45;;
71462;SDS011;59266;52.608;13.260;2023-02-14T08:37:42;37.35;;;12.90;;
71462;SDS011;59266;52.608;13.260;2023-02-14T08:40:09;40.40;;;11.43;;
71462;SDS011;59266;52.608;13.260;2023-02-14T08:42:36;31.40;;;12.00;;
71462;SDS011;59266;52.608;13.260;2023-02-14T08:45:03;35.80;;;12.35;;
71462;SDS011;59266;52.608;13.260;2023-02-14T08:47:32;31.85;;;10.70;;
71462;SDS011;59266;52.608;13.260;2023-02-14T08:50:04;36.20;;;12.73;;
71462;SDS011;59266;52.608;13.260;2023-02-14T08:52:35;32.35;;;12.32;;
71462;SDS011;59266;52.608;13.260;2023-02-14T08:55:01;34.05;;;11.40;;
71462;SDS011;59266;52.608;13.260;2023-02-14T08:57:28;29.23;;;10.48;;
71462;SDS011;59266;52.608;13.260;2023-02-14T08:59:55;34.75;;;12.25;;
71462;SDS011;59266;52.608;13.260;2023-02-14T09:02:22;27.95;;;11.57;;
71462;SDS011;59266;52.608;13.260;2023-02-14T09:04:50;31.08;;;11.95;;
71462;SDS011;59266;52.608;13.260;2023-02-14T09:07:19;31.92;;;12.00;;
71462;SDS011;59266;52.608;13.260;2023-02-14T09:09:47;30.90;;;11.80;;
71462;SDS011;59266;52.608;13.260;2023-02-14T09:12:13;33.08;;;11.80;;
71462;SDS011;59266;52.608;13.260;2023-02-14T09:14:42;31.58;;;11.88;;
71462;SDS011;59266;52.608;13.260;2023-02-14T09:17:12;33.42;;;12.75;;
71462;SDS011;59266;52.608;13.260;2023-02-14T09:19:41;34.20;;;11.88;;
71462;SDS011;59266;52.608;13.260;2023-02-14T09:22:08;33.10;;;12.38;;
71462;SDS011;59266;52.608;13.260;2023-02-14T09:24:36;38.25;;;12.38;;
71462;SDS011;59266;52.608;13.260;2023-02-14T09:27:04;31.48;;;12.23;;
71462;SDS011;59266;52.608;13.260;2023-02-14T09:29:33;35.10;;;13.55;;
71462;SDS011;59266;52.608;13.260;2023-02-14T09:32:00;34.40;;;13.00;;
71462;SDS011;59266;52.608;13.260;2023-02-14T09:34:28;34.42;;;12.70;;
71462;SDS011;59266;52.608;13.260;2023-02-14T09:36:55;35.90;;;13.13;;
71462;SDS011;59266;52.608;13.260;2023-02-14T09:39:41;35.30;;;13.05;;
71462;SDS011;59266;52.608;13.260;2023-02-14T09:44:56;35.10;;;13.85;;
71462;SDS011;59266;52.608;13.260;2023-02-14T09:50:47;37.60;;;13.02;;
71462;SDS011;59266;52.608;13.260;2023-02-14T09:53:23;34.30;;;13.20;;
71462;SDS011;59266;52.608;13.260;2023-02-14T09:59:18;35.13;;;12.88;;
71462;SDS011;59266;52.608;13.260;2023-02-14T10:01:56;32.72;;;12.77;;
71462;SDS011;59266;52.608;13.260;2023-02-14T10:09:51;37.65;;;13.80;;
71462;SDS011;59266;52.608;13.260;2023-02-14T10:12:26;33.63;;;12.25;;
71462;SDS011;59266;52.608;13.260;2023-02-14T10:14:59;35.35;;;13.93;;
71462;SDS011;59266;52.608;13.260;2023-02-14T10:17:35;36.72;;;13.27;;
71462;SDS011;59266;52.608;13.260;2023-02-14T10:20:17;33.17;;;13.75;;
71462;SDS011;59266;52.608;13.260;2023-02-14T10:23:35;35.40;;;13.13;;
71462;SDS011;59266;52.608;13.260;2023-02-14T10:26:01;33.83;;;12.50;;
71462;SDS011;59266;52.608;13.260;2023-02-14T10:28:51;34.35;;;13.18;;
71462;SDS011;59266;52.608;13.260;2023-02-14T10:31:26;36.83;;;13.25;;
71462;SDS011;59266;52.608;13.260;2023-02-14T10:34:07;33.03;;;12.05;;
71462;SDS011;59266;52.608;13.260;2023-02-14T10:37:03;39.85;;;13.70;;
71462;SDS011;59266;52.608;13.260;2023-02-14T10:45:58;36.08;;;13.60;;
71462;SDS011;59266;52.608;13.260;2023-02-14T10:48:40;37.88;;;13.80;;
71462;SDS011;59266;52.608;13.260;2023-02-14T10:51:26;33.22;;;12.60;;
71462;SDS011;59266;52.608;13.260;2023-02-14T10:54:07;37.22;;;13.98;;
71462;SDS011;59266;52.608;13.260;2023-02-14T10:59:20;36.53;;;13.43;;
71462;SDS011;59266;52.608;13.260;2023-02-14T11:01:51;36.30;;;13.70;;
71462;SDS011;59266;52.608;13.260;2023-02-14T11:04:20;37.72;;;13.85;;
71462;SDS011;59266;52.608;13.260;2023-02-14T11:06:49;38.55;;;14.82;;
71462;SDS011;59266;52.608;13.260;2023-02-14T11:09:19;34.30;;;14.48;;
71462;SDS011;59266;52.608;13.260;2023-02-14T11:11:50;34.33;;;13.63;;
71462;SDS011;59266;52.608;13.260;2023-02-14T11:14:20;38.45;;;15.25;;
71462;SDS011;59266;52.608;13.260;2023-02-14T11:16:56;39.45;;;13.98;;
71462;SDS011;59266;52.608;13.260;2023-02-14T11:19:25;39.05;;;14.20;;
71462;SDS011;59266;52.608;13.260;2023-02-14T11:21:57;34.50;;;12.98;;
71462;SDS011;59266;52.608;13.260;2023-02-14T11:24:32;38.05;;;14.25;;
71462;SDS011;59266;52.608;13.260;2023-02-14T11:27:14;33.88;;;13.70;;
71462;SDS011;59266;52.608;13.260;2023-02-14T11:29:45;34.03;;;13.63;;
71462;SDS011;59266;52.608;13.260;2023-02-14T11:32:24;38.33;;;14.18;;
71462;SDS011;59266;52.608;13.260;2023-02-14T11:35:03;35.42;;;14.02;;
71462;SDS011;59266;52.608;13.260;2023-02-14T11:37:34;34.95;;;13.40;;
71462;SDS011;59266;52.608;13.260;2023-02-14T11:40:09;38.47;;;14.05;;
71462;SDS011;59266;52.608;13.260;2023-02-14T11:42:54;37.35;;;14.77;;
71462;SDS011;59266;52.608;13.260;2023-02-14T11:45:40;42.80;;;14.15;;
71462;SDS011;59266;52.608;13.260;2023-02-14T11:48:16;39.85;;;14.93;;
71462;SDS011;59266;52.608;13.260;2023-02-14T11:51:11;36.22;;;14.93;;
71462;SDS011;59266;52.608;13.260;2023-02-14T11:53:50;36.45;;;14.68;;
71462;SDS011;59266;52.608;13.260;2023-02-14T11:56:20;35.78;;;14.10;;
71462;SDS011;59266;52.608;13.260;2023-02-14T11:58:55;37.72;;;14.23;;
71462;SDS011;59266;52.608;13.260;2023-02-14T12:01:30;37.03;;;14.80;;
71462;SDS011;59266;52.608;13.260;2023-02-14T12:03:59;36.47;;;14.77;;
71462;SDS011;59266;52.608;13.260;2023-02-14T12:06:30;37.25;;;14.27;;
71462;SDS011;59266;52.608;13.260;2023-02-14T12:09:12;38.92;;;15.70;;
71462;SDS011;59266;52.608;13.260;2023-02-14T12:14:39;35.90;;;15.25;;
71462;SDS011;59266;52.608;13.260;2023-02-14T12:19:53;40.92;;;13.90;;
71462;SDS011;59266;52.608;13.260;2023-02-14T12:22:39;36.65;;;14.50;;
71462;SDS011;59266;52.608;13.260;2023-02-14T12:25:38;35.25;;;13.98;;
71462;SDS011;59266;52.608;13.260;2023-02-14T12:28:11;33.70;;;13.95;;
71462;SDS011;59266;52.608;13.260;2023-02-14T12:30:54;37.67;;;14.05;;
71462;SDS011;59266;52.608;13.260;2023-02-14T12:33:20;38.03;;;14.40;;
71462;SDS011;59266;52.608;13.260;2023-02-14T12:38:47;37.58;;;15.15;;
71462;SDS011;59266;52.608;13.260;2023-02-14T12:41:24;32.38;;;12.95;;
71462;SDS011;59266;52.608;13.260;2023-02-14T12:55:24;32.67;;;12.57;;
71462;SDS011;59266;52.608;13.260;2023-02-14T12:58:11;29.77;;;12.32;;
71462;SDS011;59266;52.608;13.260;2023-02-14T13:00:57;27.25;;;12.60;;
71462;SDS011;59266;52.608;13.260;2023-02-14T13:06:35;31.65;;;11.85;;
71462;SDS011;59266;52.608;13.260;2023-02-14T13:09:21;33.35;;;13.65;;
71462;SDS011;59266;52.608;13.260;2023-02-14T13:14:53;29.65;;;12.40;;
71462;SDS011;59266;52.608;13.260;2023-02-14T13:22:33;34.08;;;12.15;;
71462;SDS011;59266;52.608;13.260;2023-02-14T13:25:05;28.95;;;12.13;;
71462;SDS011;59266;52.608;13.260;2023-02-14T13:27:41;29.98;;;12.80;;
71462;SDS011;59266;52.608;13.260;2023-02-14T13:30:24;30.10;;;12.27;;
71462;SDS011;59266;52.608;13.260;2023-02-14T13:32:59;31.02;;;12.68;;
71462;SDS011;59266;52.608;13.260;2023-02-14T13:35:29;32.05;;;12.05;;
71462;SDS011;59266;52.608;13.260;2023-02-14T13:37:58;29.20;;;12.82;;
71462;SDS011;59266;52.608;13.260;2023-02-14T13:40:28;31.05;;;12.35;;
71462;SDS011;59266;52.608;13.260;2023-02-14T13:42:57;32.65;;;12.52;;
71462;SDS011;59266;52.608;13.260;2023-02-14T13:50:37;31.92;;;12.05;;
71462;SDS011;59266;52.608;13.260;2023-02-14T13:53:09;29.77;;;11.77;;
71462;SDS011;59266;52.608;13.260;2023-02-14T13:55:41;32.03;;;12.95;;
71462;SDS011;59266;52.608;13.260;2023-02-14T14:00:52;26.52;;;10.90;;
71462;SDS011;59266;52.608;13.260;2023-02-14T14:06:25;29.15;;;11.93;;
71462;SDS011;59266;52.608;13.260;2023-02-14T14:08:45;29.88;;;12.40;;
71462;SDS011;59266;52.608;13.260;2023-02-14T14:18:49;32.58;;;12.77;;
71462;SDS011;59266;52.608;13.260;2023-02-14T14:21:23;34.53;;;12.80;;
71462;SDS011;59266;52.608;13.260;2023-02-14T14:26:56;29.83;;;11.20;;
71462;SDS011;59266;52.608;13.260;2023-02-14T14:29:33;26.95;;;11.60;;
71462;SDS011;59266;52.608;13.260;2023-02-14T14:32:15;31.23;;;12.43;;
71462;SDS011;59266;52.608;13.260;2023-02-14T14:34:54;30.70;;;11.40;;
71462;SDS011;59266;52.608;13.260;2023-02-14T14:37:33;31.10;;;12.35;;
71462;SDS011;59266;52.608;13.260;2023-02-14T14:42:35;33.83;;;10.82;;
71462;SDS011;59266;52.608;13.260;2023-02-14T14:45:17;30.70;;;11.93;;
71462;SDS011;59266;52.608;13.260;2023-02-14T14:47:49;33.75;;;13.05;;
71462;SDS011;59266;52.608;13.260;2023-02-14T14:50:23;36.83;;;13.65;;
71462;SDS011;59266;52.608;13.260;2023-02-14T14:52:55;33.22;;;12.52;;
71462;SDS011;59266;52.608;13.260;2023-02-14T14:55:30;31.30;;;12.52;;
71462;SDS011;59266;52.608;13.260;2023-02-14T14:58:00;40.65;;;16.20;;
71462;SDS011;59266;52.608;13.260;2023-02-14T15:03:00;32.25;;;12.20;;
71462;SDS011;59266;52.608;13.260;2023-02-14T15:05:36;30.45;;;11.73;;
71462;SDS011;59266;52.608;13.260;2023-02-14T15:08:12;30.90;;;12.05;;
71462;SDS011;59266;52.608;13.260;2023-02-14T15:11:04;31.30;;;11.68;;
71462;SDS011;59266;52.608;13.260;2023-02-14T15:13:37;32.30;;;12.13;;
71462;SDS011;59266;52.608;13.260;2023-02-14T15:16:27;32.08;;;12.65;;
71462;SDS011;59266;52.608;13.260;2023-02-14T15:19:05;34.47;;;12.50;;
71462;SDS011;59266;52.608;13.260;2023-02-14T15:21:35;31.17;;;11.73;;
71462;SDS011;59266;52.608;13.260;2023-02-14T15:24:08;32.38;;;12.65;;
71462;SDS011;59266;52.608;13.260;2023-02-14T15:26:42;33.90;;;12.48;;
71462;SDS011;59266;52.608;13.260;2023-02-14T15:29:29;32.35;;;12.88;;
71462;SDS011;59266;52.608;13.260;2023-02-14T15:32:01;30.92;;;12.73;;
71462;SDS011;59266;52.608;13.260;2023-02-14T15:34:30;32.97;;;12.00;;
71462;SDS011;59266;52.608;13.260;2023-02-14T15:37:01;29.73;;;11.50;;
71462;SDS011;59266;52.608;13.260;2023-02-14T15:39:36;35.63;;;12.90;;
71462;SDS011;59266;52.608;13.260;2023-02-14T15:42:17;32.15;;;12.35;;
71462;SDS011;59266;52.608;13.260;2023-02-14T15:47:54;29.73;;;11.52;;
71462;SDS011;59266;52.608;13.260;2023-02-14T15:50:24;28.88;;;11.07;;
71462;SDS011;59266;52.608;13.260;2023-02-14T15:53:07;26.67;;;10.80;;
71462;SDS011;59266;52.608;13.260;2023-02-14T15:55:53;34.28;;;11.45;;
71462;SDS011;59266;52.608;13.260;2023-02-14T15:59:00;28.27;;;11.43;;
71462;SDS011;59266;52.608;13.260;2023-02-14T16:01:29;31.48;;;11.15;;
71462;SDS011;59266;52.608;13.260;2023-02-14T16:04:00;29.00;;;12.10;;
71462;SDS011;59266;52.608;13.260;2023-02-14T16:06:39;32.72;;;11.70;;
71462;SDS011;59266;52.608;13.260;2023-02-14T16:09:26;27.58;;;11.00;;
71462;SDS011;59266;52.608;13.260;2023-02-14T16:11:55;34.90;;;11.07;;
71462;SDS011;59266;52.608;13.260;2023-02-14T16:14:31;29.00;;;11.27;;
71462;SDS011;59266;52.608;13.260;2023-02-14T16:17:06;29.27;;;10.80;;
71462;SDS011;59266;52.608;13.260;2023-02-14T16:19:38;29.10;;;11.13;;
71462;SDS011;59266;52.608;13.260;2023-02-14T16:22:11;34.13;;;12.75;;
71462;SDS011;59266;52.608;13.260;2023-02-14T16:24:49;29.40;;;11.23;;
71462;SDS011;59266;52.608;13.260;2023-02-14T16:27:16;27.20;;;10.68;;
71462;SDS011;59266;52.608;13.260;2023-02-14T16:29:43;28.23;;;11.30;;
71462;SDS011;59266;52.608;13.260;2023-02-14T16:32:11;26.70;;;11.65;;
71462;SDS011;59266;52.608;13.260;2023-02-14T16:34:41;28.95;;;11.20;;
71462;SDS011;59266;52.608;13.260;2023-02-14T16:37:22;29.98;;;11.65;;
71462;SDS011;59266;52.608;13.260;2023-02-14T16:40:00;29.00;;;12.32;;
71462;SDS011;59266;52.608;13.260;2023-02-14T16:42:27;29.73;;;11.55;;
71462;SDS011;59266;52.608;13.260;2023-02-14T16:44:53;30.42;;;11.70;;